This is the latest recevied weather packets stored in our database for station/object EA1IOS-11. If no packets are shown the sender has not sent any weather packets the latest 10 day(s).
| Time | Temp. | Humidity | Pressure | Rain* | Wind** | Luminosity | Snow |
|---|---|---|---|---|---|---|---|
| 1777536638 | 17.22° C | 86% | 1015.9 hPa | 0 mm | - | - | - |
| 1777535424 | 16.67° C | 89% | 1015.7 hPa | 0 mm | - | - | - |
| 1777533660 | 15.56° C | 91% | 1015.4 hPa | 0 mm | - | - | - |
| 1777529463 | 14.44° C | 95% | 1014.8 hPa | 0 mm | - | - | - |
| 1777524052 | 14.44° C | 95% | 1014 hPa | 0 mm | - | - | - |
| 1777522837 | 13.89° C | 96% | 1013.9 hPa | 0 mm | - | - | - |
| 1777518638 | 13.89° C | 95% | 1013.2 hPa | 0 mm | - | - | - |
| 1777512073 | 14.44° C | 96% | 1012.5 hPa | 0 mm | - | - | - |
| 1777505442 | 13.89° C | 96% | 1011.2 hPa | 0 mm | - | - | - |
| 1777504247 | 13.89° C | 96% | 1011.1 hPa | 0 mm | - | - | - |
| 1777495836 | 15° C | 94% | 1010.2 hPa | 0 mm | - | - | - |
| 1777495226 | 15° C | 94% | 1010.1 hPa | 0 mm | - | - | - |
| 1777493463 | 15° C | 94% | 1009.6 hPa | 0 mm | - | - | - |
| 1777489265 | 15° C | 94% | 1008.7 hPa | 0 mm | - | - | - |
| 1777485617 | 15.56° C | 93% | 1008.8 hPa | 0.25 mm | - | - | - |
| 1777482638 | 15.56° C | 89% | 1008.9 hPa | 0 mm | - | - | - |
| 1777480264 | 15.56° C | 87% | 1008.5 hPa | 0 mm | - | - | - |
| 1777479050 | 15° C | 86% | 1008.6 hPa | 0 mm | - | - | - |
| 1777477226 | 15.56° C | 86% | 1008.1 hPa | 0 mm | - | - | - |
| 1777476072 | 15.56° C | 85% | 1008.1 hPa | 0 mm | - | - | - |
| 1777467617 | 13.89° C | 91% | 1008.8 hPa | 1.02 mm | - | - | - |
| 1777467074 | 13.33° C | 90% | 1008.8 hPa | 1.02 mm | - | - | - |
| 1777465853 | 13.33° C | 91% | 1008.9 hPa | 1.02 mm | - | - | - |
| 1777459839 | 14.44° C | 92% | 1008.9 hPa | 1.27 mm | - | - | - |
| 1777457465 | 15° C | 89% | 1009 hPa | 0 mm | - | - | - |
* Rain latest hour (hover to see other rain measurements)
** Current wind speed in m/s (hover to see current wind gust speed)